KVOK/VOK METAR and TAF weather

Enter ICAO airport designator
Station Type Date Time Source
KVOK METAR 2020/07/12 19:56 UTC NOAA

KVOK 121956Z AUTO 33006KT 10SM FEW049 FEW140 SCT170 26/16 A2993 RMK AO2 SLP135 T02600162


Station Type Date Time Source
KVOK Decoded METAR 2020/07/12 19:56 UTC NOAA

Volk / Camp Douglas, WI, United States (KVOK) 43-56N 090-16W
Jul 12, 2020 - 03:56 PM EDT / 2020.07.12 1956 UTC
Wind: from the NNW (330 degrees) at 7 MPH (6 KT):0
Visibility: 10 mile(s):0
Sky conditions: partly cloudy
Temperature: 78.8 F (26.0 C)
Dew Point: 61.2 F (16.2 C)
Relative Humidity: 54%
Pressure (altimeter): 29.93 in. Hg (1013 hPa)
ob: KVOK 121956Z AUTO 33006KT 10SM FEW049 FEW140 SCT170 26/16 A2993 RMK AO2 SLP135 T02600162
cycle: 20

Station Type Date Time Source
KVOK TAF 2020/07/12 17:06 UTC NOAA

TAF KVOK 121700Z 1217/1323 VRB06KT 9999 SCT035 QNH2990INS TX26/1317Z TN15/1310Z LAST NO
AMDS AFT 1221 NEXT 1309

Example: see airport list